Time;durP1;ratioP1;P1;durP2;ratioP2;P2;SDS_P1;SDS_P2;PMS_P1;PMS_P2;Temp;Humidity;BMP_temperature;BMP_pressure;BME280_temperature;BME280_humidity;BME280_pressure;Samples;Min_cycle;Max_cycle;Signal;HPM_P1;HPM_P2
2021/09/17 00:02:10;;;;;;;3.20;1.60;;;;;;;13.76;91.41;100862.63;112871;1191;60149;-82
2021/09/17 00:04:37;;;;;;;3.40;2.20;;;;;;;13.71;91.95;100862.50;112597;1191;61446;-82
2021/09/17 00:07:03;;;;;;;3.70;2.10;;;;;;;13.66;92.32;100864.39;112634;1192;60243;-81
2021/09/17 00:09:30;;;;;;;3.60;2.10;;;;;;;13.61;92.51;100863.56;112680;1192;61898;-82
2021/09/17 00:11:57;;;;;;;3.80;1.60;;;;;;;13.57;92.90;100859.09;112594;1191;60249;-81
2021/09/17 00:14:23;;;;;;;5.30;2.40;;;;;;;13.52;93.44;100860.52;112582;1190;74546;-81
2021/09/17 00:16:50;;;;;;;5.80;2.20;;;;;;;13.48;93.83;100857.33;112638;1192;70694;-81
2021/09/17 00:19:16;;;;;;;4.90;2.30;;;;;;;13.45;93.93;100857.91;112562;1192;73665;-81
2021/09/17 00:21:43;;;;;;;4.70;2.00;;;;;;;13.40;94.15;100852.42;112578;1191;60186;-80
2021/09/17 00:24:10;;;;;;;3.30;1.90;;;;;;;13.36;94.54;100855.04;112592;1192;60280;-81
2021/09/17 00:26:36;;;;;;;4.70;2.20;;;;;;;13.32;95.03;100850.04;112557;1191;74575;-80
2021/09/17 00:29:03;;;;;;;3.90;2.10;;;;;;;13.28;94.89;100846.45;112663;1192;72851;-81
2021/09/17 00:31:30;;;;;;;6.20;2.60;;;;;;;13.25;95.96;100845.02;112711;1191;72644;-81
2021/09/17 00:33:56;;;;;;;7.10;2.00;;;;;;;13.23;96.06;100843.39;112500;1192;61665;-81
2021/09/17 00:36:23;;;;;;;4.60;2.50;;;;;;;13.20;96.23;100838.07;113047;1191;60219;-81
2021/09/17 00:38:50;;;;;;;6.20;2.80;;;;;;;13.19;96.44;100843.31;112585;1190;74841;-82
2021/09/17 00:41:16;;;;;;;4.50;2.00;;;;;;;13.21;96.79;100841.25;112819;1192;72197;-81
2021/09/17 00:43:43;;;;;;;8.30;3.20;;;;;;;13.20;96.57;100838.36;113239;1192;74381;-82
2021/09/17 00:46:09;;;;;;;5.60;2.80;;;;;;;13.18;96.98;100844.82;113895;1192;63136;-82
2021/09/17 00:48:36;;;;;;;8.20;2.90;;;;;;;13.18;97.08;100840.27;112949;1191;61449;-81
2021/09/17 00:51:02;;;;;;;5.30;2.40;;;;;;;13.17;96.90;100840.20;112510;1192;60144;-82
2021/09/17 00:53:33;;;;;;;4.50;2.00;;;;;;;13.16;97.13;100842.21;112504;1192;71692;-82
2021/09/17 00:56:04;;;;;;;6.90;3.00;;;;;;;13.16;97.19;100838.36;112520;1191;72659;-81
2021/09/17 00:58:30;;;;;;;6.70;3.10;;;;;;;13.15;97.59;100843.79;112678;1192;63396;-80
2021/09/17 01:00:58;;;;;;;4.80;3.00;;;;;;;13.15;97.88;100840.73;113777;1192;60259;-83
2021/09/17 01:03:25;;;;;;;6.30;3.40;;;;;;;13.18;98.09;100840.75;112984;1192;74302;-83
2021/09/17 01:05:52;;;;;;;5.00;3.20;;;;;;;13.20;98.35;100839.67;112694;1192;71507;-82
2021/09/17 01:08:19;;;;;;;5.40;3.30;;;;;;;13.22;98.22;100844.49;112600;1191;73572;-81
2021/09/17 01:10:46;;;;;;;8.80;3.60;;;;;;;13.26;98.38;100844.95;112839;1192;63439;-83
2021/09/17 01:13:13;;;;;;;10.10;3.10;;;;;;;13.28;98.34;100842.89;112825;1191;60427;-82
2021/09/17 01:15:40;;;;;;;7.80;3.70;;;;;;;13.31;97.99;100841.45;112641;1192;74915;-82
2021/09/17 01:18:06;;;;;;;6.40;3.20;;;;;;;13.34;98.01;100845.52;112427;1191;60186;-82
2021/09/17 01:20:33;;;;;;;7.80;3.50;;;;;;;13.36;97.98;100844.00;112601;1192;60212;-81
2021/09/17 01:22:59;;;;;;;4.20;2.70;;;;;;;13.38;97.74;100839.73;112663;1191;60943;-81
2021/09/17 01:25:26;;;;;;;8.10;3.50;;;;;;;13.38;97.94;100836.29;112599;1191;60249;-81
2021/09/17 01:27:53;;;;;;;4.40;2.50;;;;;;;13.41;97.83;100834.21;112591;1192;60279;-81
2021/09/17 01:30:22;;;;;;;5.20;3.10;;;;;;;13.43;97.82;100832.69;112515;1192;72209;-80
2021/09/17 01:32:49;;;;;;;9.20;3.90;;;;;;;13.44;97.84;100830.96;112570;1192;73639;-81
2021/09/17 01:35:18;;;;;;;4.80;3.60;;;;;;;13.44;97.74;100829.14;112526;1192;61704;-82
2021/09/17 01:37:45;;;;;;;7.10;3.30;;;;;;;13.46;97.78;100835.70;112745;1192;60351;-82
2021/09/17 01:40:13;;;;;;;5.60;2.70;;;;;;;13.47;97.69;100829.06;112593;1191;73832;-81
2021/09/17 01:42:40;;;;;;;8.90;4.40;;;;;;;13.46;97.70;100824.10;112723;1192;71071;-81
2021/09/17 01:45:09;;;;;;;6.70;3.50;;;;;;;13.47;97.74;100824.95;112631;1192;72755;-81
2021/09/17 01:47:36;;;;;;;7.20;2.90;;;;;;;13.48;97.66;100821.33;112655;1189;62890;-82
2021/09/17 01:50:03;;;;;;;6.20;3.20;;;;;;;13.47;97.89;100820.02;112741;1190;60849;-82
2021/09/17 01:52:30;;;;;;;4.70;2.90;;;;;;;13.48;97.81;100822.92;112608;1190;73818;-82
2021/09/17 01:54:57;;;;;;;5.00;3.00;;;;;;;13.48;97.73;100819.54;113120;1190;71049;-82
2021/09/17 01:57:24;;;;;;;8.90;3.80;;;;;;;13.48;97.96;100816.83;113176;1190;60188;-82
2021/09/17 01:59:50;;;;;;;5.30;2.90;;;;;;;13.49;97.99;100816.17;113771;1175;60206;-86
2021/09/17 02:02:17;;;;;;;5.80;3.30;;;;;;;13.50;97.93;100813.23;112537;1192;60229;-81
2021/09/17 02:04:44;;;;;;;8.40;4.80;;;;;;;13.50;98.19;100813.89;112598;1192;73708;-81
2021/09/17 02:07:10;;;;;;;7.10;4.10;;;;;;;13.52;98.01;100809.27;112630;1191;70947;-81
2021/09/17 02:09:37;;;;;;;6.80;2.90;;;;;;;13.54;98.06;100814.55;112847;1191;72450;-81
2021/09/17 02:12:05;;;;;;;5.20;3.50;;;;;;;13.55;98.18;100817.09;112664;1192;60614;-82
2021/09/17 02:14:32;;;;;;;6.40;3.80;;;;;;;13.56;98.02;100811.95;112651;1192;60283;-82
2021/09/17 02:16:58;;;;;;;5.50;3.50;;;;;;;13.57;98.01;100813.95;112673;1191;73953;-83
2021/09/17 02:19:25;;;;;;;7.50;3.70;;;;;;;13.57;98.25;100810.55;112597;1192;60168;-85
2021/09/17 02:21:54;;;;;;;6.90;3.00;;;;;;;13.57;98.14;100806.08;112492;1192;73562;-82
2021/09/17 02:24:22;;;;;;;5.80;3.40;;;;;;;13.59;98.08;100805.73;112821;1192;63172;-88
2021/09/17 02:26:48;;;;;;;5.50;3.40;;;;;;;13.60;98.21;100810.73;112708;1192;61274;-88
2021/09/17 02:29:16;;;;;;;7.30;3.30;;;;;;;13.61;98.32;100803.66;112687;1192;73877;-83
2021/09/17 02:31:43;;;;;;;6.60;3.40;;;;;;;13.61;98.22;100805.02;112670;1191;72186;-82
2021/09/17 02:34:10;;;;;;;8.40;4.30;;;;;;;13.64;98.09;100803.46;112587;1191;72562;-82
2021/09/17 02:36:36;;;;;;;4.80;3.60;;;;;;;13.65;97.91;100809.02;112631;1191;61873;-82
2021/09/17 02:39:04;;;;;;;6.30;3.50;;;;;;;13.65;97.99;100803.11;112637;1192;62389;-82
2021/09/17 02:41:33;;;;;;;6.30;3.50;;;;;;;13.65;97.97;100804.88;112591;1192;73275;-82
2021/09/17 02:44:01;;;;;;;7.00;3.70;;;;;;;13.67;98.10;100800.13;112472;1192;71784;-83
2021/09/17 02:46:27;;;;;;;5.00;3.10;;;;;;;13.67;98.28;100800.30;112720;1192;72648;-82
2021/09/17 02:48:54;;;;;;;6.50;3.40;;;;;;;13.65;98.52;100794.26;112594;1192;60151;-82
2021/09/17 02:51:20;;;;;;;10.90;4.20;;;;;;;13.65;98.63;100801.59;112615;1192;60491;-81
2021/09/17 02:53:47;;;;;;;11.10;4.60;;;;;;;13.63;98.59;100806.73;112500;1192;60638;-82
2021/09/17 02:56:13;;;;;;;6.00;3.50;;;;;;;13.61;98.69;100800.20;112607;1192;60211;-82
2021/09/17 02:58:40;;;;;;;6.00;4.40;;;;;;;13.60;98.78;100800.77;112595;1192;60213;-82
2021/09/17 03:01:06;;;;;;;6.50;3.70;;;;;;;13.59;98.74;100801.05;112645;1192;60141;-82
2021/09/17 03:03:33;;;;;;;6.00;3.60;;;;;;;13.59;98.76;100810.35;112678;1191;60791;-83
2021/09/17 03:06:00;;;;;;;7.00;4.20;;;;;;;13.60;98.64;100801.96;112403;1192;60217;-81
2021/09/17 03:08:26;;;;;;;6.90;4.00;;;;;;;13.68;98.23;100802.64;112310;1192;60288;-80
2021/09/17 03:10:57;;;;;;;7.60;4.00;;;;;;;13.75;97.90;100805.65;112584;1192;72604;-81
2021/09/17 03:13:28;;;;;;;5.30;3.90;;;;;;;13.74;97.93;100800.97;112669;1191;62306;-83
2021/09/17 03:15:55;;;;;;;6.70;3.20;;;;;;;13.72;97.84;100804.52;112784;1192;61255;-83
2021/09/17 03:18:21;;;;;;;5.90;4.10;;;;;;;13.72;97.98;100806.20;112585;1192;74932;-80
2021/09/17 03:20:50;;;;;;;6.40;3.30;;;;;;;13.71;98.08;100803.69;112662;1191;60192;-82
2021/09/17 03:23:18;;;;;;;8.90;4.40;;;;;;;13.70;98.19;100795.31;112740;1191;73585;-82
2021/09/17 03:25:45;;;;;;;8.60;4.30;;;;;;;13.69;98.33;100798.05;112665;1192;63244;-81
2021/09/17 03:28:12;;;;;;;6.30;4.40;;;;;;;13.69;98.29;100799.86;112662;1191;60684;-82
2021/09/17 03:30:38;;;;;;;7.40;4.90;;;;;;;13.69;98.42;100798.02;112630;1192;73811;-82
2021/09/17 03:33:05;;;;;;;;;;;;;;;13.69;98.31;100798.34;112628;1191;71055;-82
2021/09/17 03:35:31;;;;;;;7.10;3.50;;;;;;;13.69;98.42;100797.52;112913;1192;73609;-84
2021/09/17 03:37:58;;;;;;;6.30;4.10;;;;;;;13.69;98.20;100798.59;112734;1192;62302;-81
2021/09/17 03:40:25;;;;;;;10.10;5.30;;;;;;;13.69;98.23;100798.59;114545;1191;60159;-82
2021/09/17 03:42:51;;;;;;;10.80;4.50;;;;;;;13.70;98.20;100795.44;113996;1191;60101;-87
2021/09/17 03:45:18;;;;;;;6.40;4.40;;;;;;;13.71;98.39;100797.29;112564;1192;72493;-83
2021/09/17 03:47:45;;;;;;;8.30;3.80;;;;;;;13.71;98.32;100791.92;112582;1192;60303;-82
2021/09/17 03:50:16;;;;;;;8.20;4.50;;;;;;;13.71;98.32;100789.09;112506;1192;62676;-82
2021/09/17 03:52:42;;;;;;;6.80;3.80;;;;;;;13.71;98.28;100788.06;112628;1192;61082;-81
2021/09/17 03:55:09;;;;;;;9.50;5.50;;;;;;;13.71;98.39;100786.42;112466;1192;60479;-82
2021/09/17 03:57:36;;;;;;;;;;;;;;;13.70;98.52;100785.52;112588;1192;71260;-81
2021/09/17 04:00:04;;;;;;;;;;;;;;;13.69;98.39;100785.80;112669;1192;72527;-82
2021/09/17 04:02:30;;;;;;;6.90;5.00;;;;;;;13.70;98.35;100789.08;112644;1191;63463;-82
2021/09/17 04:04:58;;;;;;;;;;;;;;;13.69;98.57;100791.52;112672;1191;60207;-81
2021/09/17 04:07:25;;;;;;;9.10;5.60;;;;;;;13.67;98.50;100790.86;112509;1192;60250;-85
2021/09/17 04:09:51;;;;;;;8.30;5.30;;;;;;;13.67;98.59;100790.66;112531;1192;60701;-82
2021/09/17 04:12:18;;;;;;;9.70;6.60;;;;;;;13.70;98.35;100790.27;112572;1192;60170;-82
2021/09/17 04:14:44;;;;;;;;;;;;;;;13.70;98.61;100788.88;112728;1192;63148;-83
2021/09/17 04:17:11;;;;;;;8.10;5.80;;;;;;;13.68;98.66;100785.58;112747;1192;61288;-81
2021/09/17 04:19:38;;;;;;;10.20;5.40;;;;;;;13.69;98.66;100784.43;112617;1192;61343;-82
2021/09/17 04:22:06;;;;;;;7.20;4.70;;;;;;;13.76;98.32;100785.44;112519;1192;69971;-85
2021/09/17 04:24:33;;;;;;;8.20;5.10;;;;;;;13.85;97.69;100786.54;112615;1192;72525;-84
2021/09/17 04:26:59;;;;;;;8.20;4.90;;;;;;;13.96;97.15;100783.95;112396;1192;60263;-75
2021/09/17 04:29:26;;;;;;;7.50;4.60;;;;;;;14.01;96.72;100782.65;112299;1191;60249;-75
2021/09/17 04:31:52;;;;;;;7.00;5.10;;;;;;;13.98;96.82;100788.02;111967;1192;60943;-75
2021/09/17 04:34:18;;;;;;;9.30;5.50;;;;;;;13.93;96.99;100789.33;112273;1192;60217;-76
2021/09/17 04:36:45;;;;;;;8.90;4.30;;;;;;;13.90;97.14;100790.34;112193;1191;60268;-76
2021/09/17 04:39:12;;;;;;;6.60;4.80;;;;;;;13.85;97.34;100792.19;112212;1192;60914;-77
2021/09/17 04:41:39;;;;;;;7.50;4.40;;;;;;;13.82;97.46;100792.22;112116;1192;60360;-75
2021/09/17 04:44:05;;;;;;;9.20;4.90;;;;;;;13.79;97.69;100800.31;112012;1192;73956;-77
2021/09/17 04:46:32;;;;;;;;;;;;;;;13.76;97.80;100800.33;112229;1192;60356;-80
2021/09/17 04:48:58;;;;;;;9.50;5.70;;;;;;;13.72;98.05;100800.00;112235;1192;60209;-77
2021/09/17 04:51:25;;;;;;;9.90;4.20;;;;;;;13.70;98.31;100803.85;112299;1192;61866;-77
2021/09/17 04:53:51;;;;;;;7.50;3.90;;;;;;;13.66;98.24;100804.43;112227;1192;61451;-77
2021/09/17 04:56:18;;;;;;;7.60;5.70;;;;;;;13.65;98.57;100809.55;112176;1191;73820;-77
2021/09/17 04:58:45;;;;;;;9.20;5.20;;;;;;;13.62;98.76;100807.09;112243;1191;60245;-76
2021/09/17 05:01:12;;;;;;;8.10;4.40;;;;;;;13.61;98.77;100809.48;111931;1192;73535;-77
2021/09/17 05:03:39;;;;;;;11.90;5.70;;;;;;;13.59;98.86;100808.84;112211;1192;61987;-77
2021/09/17 05:06:06;;;;;;;8.20;5.50;;;;;;;13.56;98.85;100810.86;112089;1192;60183;-77
2021/09/17 05:08:33;;;;;;;8.30;5.40;;;;;;;13.51;99.29;100810.09;112153;1193;75052;-77
2021/09/17 05:10:59;;;;;;;9.90;5.90;;;;;;;13.47;99.34;100812.75;112315;1192;60915;-81
2021/09/17 05:13:26;;;;;;;10.10;5.20;;;;;;;13.41;99.35;100812.67;111963;1192;60181;-75
2021/09/17 05:15:53;;;;;;;8.20;5.40;;;;;;;13.36;99.81;100815.04;112170;1191;62988;-77
2021/09/17 05:18:20;;;;;;;12.20;6.70;;;;;;;13.34;100.00;100812.74;112240;1192;60246;-76
2021/09/17 05:20:47;;;;;;;8.10;5.40;;;;;;;13.33;99.99;100808.96;112302;1192;74759;-77
2021/09/17 05:23:13;;;;;;;10.50;6.70;;;;;;;13.30;100.00;100806.61;112261;1192;71073;-79
2021/09/17 05:25:39;;;;;;;10.10;6.50;;;;;;;13.27;100.00;100806.38;112024;1192;60259;-80
2021/09/17 05:28:06;;;;;;;12.10;6.90;;;;;;;13.24;100.00;100805.55;112578;1191;60656;-78
2021/09/17 05:30:33;;;;;;;8.90;5.10;;;;;;;13.24;100.00;100803.41;112563;1191;60961;-77
2021/09/17 05:33:01;;;;;;;10.70;6.20;;;;;;;13.23;100.00;100805.82;112847;1191;73678;-81
2021/09/17 05:35:27;;;;;;;11.40;7.50;;;;;;;13.22;100.00;100807.08;112617;1191;70871;-77
2021/09/17 05:37:56;;;;;;;9.60;6.90;;;;;;;13.21;100.00;100805.42;112429;1192;72696;-77
2021/09/17 05:40:23;;;;;;;10.20;5.90;;;;;;;13.21;100.00;100809.23;112351;1192;62333;-79
2021/09/17 05:42:50;;;;;;;10.30;5.50;;;;;;;13.22;100.00;100806.63;112254;1191;61496;-78
2021/09/17 05:45:17;;;;;;;11.20;6.50;;;;;;;13.26;100.00;100806.86;112131;1191;74833;-78
2021/09/17 05:47:44;;;;;;;8.30;6.00;;;;;;;13.32;100.00;100806.09;112317;1191;70929;-79
2021/09/17 05:50:12;;;;;;;9.60;6.70;;;;;;;13.36;100.00;100810.45;112289;1192;71282;-78
2021/09/17 05:52:39;;;;;;;12.80;6.30;;;;;;;13.44;100.00;100808.66;111886;1191;62301;-78
2021/09/17 05:55:07;;;;;;;11.00;7.20;;;;;;;13.51;100.00;100809.67;112187;1191;60431;-79
2021/09/17 05:57:33;;;;;;;7.80;5.00;;;;;;;13.61;99.86;100803.98;112415;1192;73926;-79
2021/09/17 06:00:06;;;;;;;12.70;6.10;;;;;;;13.70;99.69;100799.38;112497;1191;69773;-80
2021/09/17 06:02:33;;;;;;;11.60;5.60;;;;;;;13.76;99.18;100800.46;112372;1192;73690;-80
2021/09/17 06:05:01;;;;;;;8.00;5.40;;;;;;;13.83;98.47;100804.03;112414;1192;61607;-84
2021/09/17 06:07:28;;;;;;;6.90;5.20;;;;;;;13.92;98.10;100806.21;112449;1191;60913;-75
2021/09/17 06:09:54;;;;;;;9.80;6.40;;;;;;;13.97;97.52;100804.50;112229;1192;73812;-73
2021/09/17 06:12:21;;;;;;;11.20;5.60;;;;;;;13.98;96.94;100805.05;112336;1192;71640;-73
2021/09/17 06:14:47;;;;;;;9.30;5.70;;;;;;;13.97;96.60;100805.00;112183;1192;72774;-73
2021/09/17 06:17:14;;;;;;;10.90;5.30;;;;;;;13.95;96.53;100806.13;111841;1192;60249;-72
2021/09/17 06:19:40;;;;;;;7.20;4.50;;;;;;;13.98;96.32;100804.71;112175;1191;60349;-72
2021/09/17 06:22:07;;;;;;;8.20;4.60;;;;;;;14.02;95.84;100815.70;112079;1192;60215;-71
2021/09/17 06:24:33;;;;;;;8.90;4.80;;;;;;;14.06;95.54;100810.89;112211;1191;60365;-71
2021/09/17 06:27:00;;;;;;;7.10;4.80;;;;;;;14.12;95.27;100812.13;112200;1192;60184;-72
2021/09/17 06:29:27;;;;;;;8.60;4.70;;;;;;;14.18;94.87;100811.82;112317;1192;60256;-71
2021/09/17 06:31:54;;;;;;;7.80;3.70;;;;;;;14.23;94.79;100807.70;112648;1191;61380;-71
2021/09/17 06:34:20;;;;;;;7.30;3.80;;;;;;;14.28;94.61;100810.82;112344;1191;60246;-71
2021/09/17 06:36:47;;;;;;;6.50;3.70;;;;;;;14.32;94.15;100809.23;112207;1192;72200;-71
2021/09/17 06:39:17;;;;;;;8.20;4.40;;;;;;;14.37;93.89;100811.85;112292;1192;60248;-71
2021/09/17 06:41:43;;;;;;;14.60;8.50;;;;;;;14.38;93.53;100817.32;112454;1192;62128;-72
2021/09/17 06:44:10;;;;;;;16.10;11.10;;;;;;;14.38;93.76;100811.78;112251;1192;60333;-71
2021/09/17 06:46:36;;;;;;;8.60;5.30;;;;;;;14.41;93.56;100808.31;112292;1190;60725;-72
2021/09/17 06:49:03;;;;;;;11.30;4.90;;;;;;;14.47;93.48;100811.77;112559;1191;70957;-72
2021/09/17 06:51:29;;;;;;;6.90;3.30;;;;;;;14.54;93.12;100813.39;112273;1191;60298;-71
2021/09/17 06:53:56;;;;;;;10.50;5.20;;;;;;;14.58;92.50;100810.35;112321;1192;61273;-70
2021/09/17 06:56:22;;;;;;;12.30;5.50;;;;;;;14.62;92.16;100813.11;112397;1192;60208;-71
2021/09/17 06:58:49;;;;;;;12.30;8.30;;;;;;;14.66;92.17;100813.42;112270;1191;60228;-71
2021/09/17 07:01:16;;;;;;;10.60;5.40;;;;;;;14.75;91.49;100812.18;112224;1192;60328;-73
2021/09/17 07:03:43;;;;;;;10.80;5.10;;;;;;;14.82;90.90;100813.94;111941;1192;73620;-73
2021/09/17 07:06:10;;;;;;;25.60;19.20;;;;;;;14.89;90.91;100810.50;111869;1192;60637;-73
2021/09/17 07:08:36;;;;;;;8.70;5.10;;;;;;;15.02;90.48;100812.73;112183;1192;60426;-72
2021/09/17 07:11:03;;;;;;;7.60;5.60;;;;;;;15.06;89.20;100816.61;112210;1190;60213;-71
2021/09/17 07:13:30;;;;;;;9.60;5.80;;;;;;;15.07;88.76;100812.62;112194;1190;60281;-71
2021/09/17 07:15:57;;;;;;;9.50;5.60;;;;;;;15.08;87.92;100814.59;112372;1192;72576;-71
2021/09/17 07:18:24;;;;;;;6.80;5.30;;;;;;;15.13;88.14;100812.91;112307;1191;60257;-72
2021/09/17 07:20:50;;;;;;;8.20;4.10;;;;;;;15.17;87.88;100811.50;112234;1190;60733;-71
2021/09/17 07:23:17;;;;;;;7.00;5.10;;;;;;;15.17;87.03;100810.38;112208;1192;60265;-72
2021/09/17 07:25:44;;;;;;;6.60;3.70;;;;;;;15.21;86.85;100811.45;112118;1192;72499;-71
2021/09/17 07:28:11;;;;;;;8.70;5.90;;;;;;;15.28;85.69;100819.86;112056;1192;73556;-72
2021/09/17 07:30:38;;;;;;;6.30;3.60;;;;;;;15.34;85.93;100819.25;112248;1191;61600;-71
2021/09/17 07:33:05;;;;;;;5.70;3.60;;;;;;;15.33;85.67;100819.16;112355;1192;60168;-72
2021/09/17 07:35:32;;;;;;;29.40;21.80;;;;;;;15.39;85.57;100814.73;112071;1192;76366;-71
2021/09/17 07:37:59;;;;;;;5.60;3.50;;;;;;;15.50;85.43;100822.20;112256;1190;70789;-71
2021/09/17 07:40:29;;;;;;;7.40;4.50;;;;;;;15.55;84.32;100822.69;112083;1191;72482;-72
2021/09/17 07:42:57;;;;;;;6.40;3.70;;;;;;;15.54;84.18;100824.30;112520;1191;60280;-71
2021/09/17 07:45:24;;;;;;;5.50;2.90;;;;;;;15.49;82.88;100821.73;112385;1192;61298;-73
2021/09/17 07:47:54;;;;;;;7.00;3.60;;;;;;;15.51;83.29;100826.92;112257;1190;75472;-72
2021/09/17 07:50:22;;;;;;;15.20;11.70;;;;;;;15.56;83.32;100826.69;112045;1190;71125;-71
2021/09/17 07:52:49;;;;;;;6.30;2.50;;;;;;;15.59;83.32;100827.80;112243;1190;73628;-73
2021/09/17 07:55:15;;;;;;;6.90;2.70;;;;;;;15.69;83.10;100830.90;112273;1190;60240;-70
2021/09/17 07:57:42;;;;;;;7.20;3.70;;;;;;;15.83;82.75;100827.25;112222;1192;60327;-70
2021/09/17 08:00:11;;;;;;;7.10;3.60;;;;;;;15.92;82.53;100821.16;111937;1192;73899;-72
2021/09/17 08:02:39;;;;;;;5.70;2.90;;;;;;;15.98;81.71;100822.64;112520;1192;72018;-71
2021/09/17 08:05:12;;;;;;;4.20;2.30;;;;;;;16.06;80.59;100825.95;112216;1192;73632;-71
2021/09/17 08:07:39;;;;;;;8.90;3.70;;;;;;;16.14;80.13;100823.20;112285;1190;61030;-72
2021/09/17 08:10:06;;;;;;;10.80;4.70;;;;;;;16.28;80.27;100824.69;112189;1192;62029;-71
2021/09/17 08:12:32;;;;;;;6.40;2.90;;;;;;;16.40;79.70;100822.64;112271;1192;74764;-72
2021/09/17 08:14:59;;;;;;;3.60;2.00;;;;;;;16.44;77.63;100826.13;112374;1190;70729;-72
2021/09/17 08:17:26;;;;;;;11.70;8.70;;;;;;;16.47;77.41;100825.44;112366;1190;72652;-71
2021/09/17 08:19:53;;;;;;;6.70;2.90;;;;;;;16.48;77.03;100830.57;112296;1191;60355;-70
2021/09/17 08:22:20;;;;;;;13.40;6.00;;;;;;;16.51;76.52;100832.16;112315;1192;60183;-72
2021/09/17 08:24:46;;;;;;;8.10;3.70;;;;;;;16.62;76.48;100829.61;112360;1190;60379;-72
2021/09/17 08:27:13;;;;;;;2.40;1.20;;;;;;;16.86;75.87;100832.52;112304;1191;71113;-71
2021/09/17 08:29:40;;;;;;;3.90;1.50;;;;;;;16.97;75.07;100835.73;112219;1192;72579;-71
2021/09/17 08:32:06;;;;;;;3.40;1.50;;;;;;;16.92;73.80;100838.14;112220;1192;61390;-72
2021/09/17 08:34:33;;;;;;;9.70;1.60;;;;;;;16.85;73.64;100836.80;112195;1191;60204;-72
2021/09/17 08:37:03;;;;;;;7.20;5.60;;;;;;;16.93;73.13;100841.30;112376;1192;73735;-72
2021/09/17 08:39:32;;;;;;;5.50;1.80;;;;;;;17.06;72.22;100840.55;112060;1176;72156;-71
2021/09/17 08:41:59;;;;;;;5.60;1.40;;;;;;;17.22;71.36;100842.64;112280;1192;74776;-72
2021/09/17 08:44:26;;;;;;;5.50;1.50;;;;;;;17.37;71.47;100835.62;112167;1192;60554;-72
2021/09/17 08:46:53;;;;;;;1.40;0.70;;;;;;;17.49;70.22;100839.41;112200;1191;60284;-70
2021/09/17 08:49:23;;;;;;;2.40;1.00;;;;;;;17.58;70.39;100845.26;112196;1192;73551;-72
2021/09/17 08:51:52;;;;;;;4.60;2.00;;;;;;;17.60;69.24;100846.35;112188;1190;72050;-73
2021/09/17 08:54:18;;;;;;;5.70;1.20;;;;;;;17.60;69.31;100845.99;112266;1190;73585;-72
2021/09/17 08:56:45;;;;;;;2.70;1.10;;;;;;;17.58;68.87;100842.70;112356;1190;60459;-71
2021/09/17 08:59:12;;;;;;;3.20;1.00;;;;;;;17.47;68.95;100845.29;112132;1192;60260;-71
2021/09/17 09:01:38;;;;;;;2.40;0.80;;;;;;;17.48;68.97;100842.59;111999;1192;60673;-72
2021/09/17 09:04:10;;;;;;;2.90;0.80;;;;;;;17.57;67.97;100842.50;112260;1191;71964;-72
2021/09/17 09:06:39;;;;;;;4.10;1.80;;;;;;;17.69;68.01;100844.39;112274;1192;72563;-70
2021/09/17 09:09:17;;;;;;;4.40;1.40;;;;;;;17.80;67.55;100839.14;112235;1190;60351;-71
2021/09/17 09:11:50;;;;;;;3.90;2.10;;;;;;;17.98;67.88;100841.00;112138;1192;60268;-72
2021/09/17 09:14:17;;;;;;;3.00;1.00;;;;;;;18.01;66.32;100838.41;112506;1191;73974;-71
2021/09/17 09:16:50;;;;;;;2.10;0.90;;;;;;;17.91;65.48;100849.94;112022;1192;71805;-71
2021/09/17 09:19:20;;;;;;;3.90;0.90;;;;;;;17.96;66.14;100841.67;112134;1193;73643;-73
2021/09/17 09:21:50;;;;;;;3.40;1.00;;;;;;;18.13;66.05;100834.50;112346;1190;61319;-72
2021/09/17 09:24:25;;;;;;;1.60;0.60;;;;;;;18.24;64.60;100835.05;112412;1192;60288;-71
2021/09/17 09:27:13;;;;;;;1.60;0.70;;;;;;;18.17;64.23;100834.67;112215;1192;73611;-71
2021/09/17 09:29:42;;;;;;;1.90;0.60;;;;;;;18.10;64.71;100821.71;112229;1192;71604;-74
2021/09/17 09:32:28;;;;;;;3.40;1.70;;;;;;;18.05;64.97;100824.73;112117;1192;73039;-72
2021/09/17 09:34:56;;;;;;;2.60;0.90;;;;;;;18.00;65.45;100821.95;112285;1192;60249;-73
2021/09/17 09:37:26;;;;;;;2.90;1.70;;;;;;;17.88;65.48;100829.38;112215;1192;61289;-71
2021/09/17 09:40:02;;;;;;;3.30;0.90;;;;;;;17.81;66.11;100825.27;112302;1190;74845;-72
2021/09/17 09:42:35;;;;;;;3.90;1.70;;;;;;;17.81;65.13;100828.16;112453;1192;72237;-72
2021/09/17 09:45:21;;;;;;;2.70;0.80;;;;;;;17.87;64.77;100821.08;112316;1192;72331;-72
2021/09/17 09:47:52;;;;;;;;;;;;;;;17.98;65.17;100819.20;112431;1192;60314;-70
2021/09/17 09:50:25;;;;;;;1.20;0.60;;;;;;;18.01;64.16;100815.75;112398;1192;60164;-72
2021/09/17 09:52:55;;;;;;;1.80;0.70;;;;;;;17.99;63.68;100820.68;112454;1192;74831;-72
2021/09/17 09:55:22;;;;;;;2.90;0.80;;;;;;;18.08;63.49;100817.70;112216;1193;72002;-72
2021/09/17 09:57:49;;;;;;;1.00;0.60;;;;;;;18.11;63.45;100814.35;112391;1191;73739;-71
2021/09/17 10:00:16;;;;;;;3.50;0.80;;;;;;;18.07;63.16;100816.59;112172;1194;60340;-71
2021/09/17 10:02:45;;;;;;;1.90;0.80;;;;;;;18.02;62.86;100818.05;112108;1191;60671;-72
2021/09/17 10:05:16;;;;;;;6.60;5.20;;;;;;;18.03;63.32;100809.90;112095;1192;74686;-72
2021/09/17 10:07:44;;;;;;;5.40;2.50;;;;;;;18.11;63.07;100806.48;112463;1190;71201;-72
2021/09/17 10:10:13;;;;;;;2.10;1.00;;;;;;;18.09;62.98;100811.34;112505;1191;73628;-71
2021/09/17 10:12:40;;;;;;;6.60;2.90;;;;;;;18.03;63.68;100807.91;112428;1192;60474;-72
2021/09/17 10:15:12;;;;;;;2.30;0.80;;;;;;;18.05;64.87;100807.95;112413;1191;60269;-71
2021/09/17 10:17:49;;;;;;;2.70;0.90;;;;;;;18.04;65.09;100805.73;112273;1191;73741;-72
2021/09/17 10:20:16;;;;;;;22.90;15.50;;;;;;;17.98;65.59;100799.95;112287;1192;70473;-72
2021/09/17 10:22:44;;;;;;;3.20;0.70;;;;;;;17.95;66.09;100805.64;112301;1184;73945;-73
2021/09/17 10:25:23;;;;;;;2.10;1.00;;;;;;;17.91;66.13;100806.98;112062;1192;60461;-72
2021/09/17 10:28:10;;;;;;;3.30;1.00;;;;;;;17.88;66.29;100808.02;112381;1192;60226;-72
2021/09/17 10:30:40;;;;;;;4.90;1.70;;;;;;;17.95;66.66;100806.63;112300;1190;74872;-72
2021/09/17 10:33:24;;;;;;;11.70;7.90;;;;;;;18.10;66.82;100805.73;112387;1191;70971;-71
2021/09/17 10:35:51;;;;;;;1.10;0.60;;;;;;;18.22;66.26;100809.05;112536;1192;72680;-71
2021/09/17 10:38:17;;;;;;;2.90;0.90;;;;;;;18.24;65.70;100808.04;112559;1190;60402;-71
2021/09/17 10:40:52;;;;;;;2.60;0.70;;;;;;;18.25;66.19;100801.61;112307;1191;60278;-71
2021/09/17 10:43:38;;;;;;;1.60;0.80;;;;;;;18.23;65.98;100798.66;112482;1190;74853;-70
2021/09/17 10:46:21;;;;;;;2.30;0.70;;;;;;;18.21;66.08;100798.70;112384;1192;71061;-71
2021/09/17 10:48:57;;;;;;;2.30;0.80;;;;;;;18.17;66.28;100800.14;112282;1192;72642;-71
2021/09/17 10:51:28;;;;;;;2.30;0.80;;;;;;;18.12;66.87;100804.55;112452;1193;60253;-70
2021/09/17 10:54:00;;;;;;;1.20;0.40;;;;;;;18.01;66.62;100802.08;112443;1191;60239;-71
2021/09/17 10:56:28;;;;;;;3.30;1.40;;;;;;;17.83;66.80;100810.90;112395;1192;73848;-71
2021/09/17 10:59:29;;;;;;;7.90;3.80;;;;;;;17.69;67.69;100808.52;112112;1192;72224;-71
2021/09/17 11:02:03;;;;;;;2.00;0.80;;;;;;;17.60;68.12;100807.08;112169;1191;73775;-71
2021/09/17 11:04:33;;;;;;;4.00;0.80;;;;;;;17.60;68.58;100803.94;112311;1194;62996;-71
2021/09/17 11:07:18;;;;;;;8.60;5.60;;;;;;;17.61;68.41;100804.70;112355;1190;61237;-72
2021/09/17 11:09:47;;;;;;;2.80;1.90;;;;;;;17.57;68.39;100804.08;112222;1192;74907;-72
2021/09/17 11:12:22;;;;;;;2.10;1.10;;;;;;;17.52;69.00;100805.98;112416;1190;71026;-73
2021/09/17 11:15:09;;;;;;;3.60;0.70;;;;;;;17.48;69.24;100807.29;112418;1190;72448;-72
2021/09/17 11:17:44;;;;;;;1.90;0.90;;;;;;;17.43;69.35;100806.41;112200;1191;60444;-72
2021/09/17 11:20:20;;;;;;;7.60;1.00;;;;;;;17.43;69.37;100801.82;112328;1190;61633;-71
2021/09/17 11:23:17;;;;;;;2.70;1.20;;;;;;;17.49;69.42;100799.73;112205;1193;73175;-70